createdAt,value
2018-02-11T00:02:23.158Z,60.13
2018-02-11T00:04:57.076Z,59.92
2018-02-11T00:07:29.923Z,59.82
2018-02-11T00:10:02.825Z,59.92
2018-02-11T00:12:35.674Z,59.93
2018-02-11T00:15:08.709Z,59.69
2018-02-11T00:17:42.503Z,59.50
2018-02-11T00:20:15.514Z,59.30
2018-02-11T00:22:48.338Z,59.25
2018-02-11T00:25:21.397Z,59.24
2018-02-11T00:27:55.110Z,59.24
2018-02-11T00:30:28.000Z,59.36
2018-02-11T00:33:00.963Z,59.36
2018-02-11T00:35:34.121Z,59.56
2018-02-11T00:38:09.679Z,59.72
2018-02-11T00:40:42.769Z,59.66
2018-02-11T00:43:15.782Z,59.79
2018-02-11T00:45:49.603Z,59.80
2018-02-11T00:48:22.642Z,59.97
2018-02-11T00:50:55.656Z,60.48
2018-02-11T00:53:28.650Z,60.54
2018-02-11T00:56:01.708Z,60.34
2018-02-11T00:58:34.696Z,60.29
2018-02-11T01:01:07.834Z,60.30
2018-02-11T01:03:40.848Z,60.25
2018-02-11T01:06:13.641Z,60.10
2018-02-11T01:08:46.556Z,60.04
2018-02-11T01:11:19.590Z,60.17
2018-02-11T01:13:52.430Z,60.12
2018-02-11T01:16:25.314Z,60.11
2018-02-11T01:18:58.226Z,60.39
2018-02-11T01:21:31.209Z,60.45
2018-02-11T01:24:03.960Z,60.46
2018-02-11T01:26:36.886Z,61.09
2018-02-11T01:29:09.690Z,60.83
2018-02-11T01:31:42.601Z,60.41
2018-02-11T01:34:15.485Z,60.38
2018-02-11T01:36:48.577Z,60.32
2018-02-11T01:39:21.566Z,60.38
2018-02-11T01:41:54.642Z,60.49
2018-02-11T01:44:27.635Z,60.41
2018-02-11T01:47:00.731Z,61.48
2018-02-11T01:49:34.481Z,61.00
2018-02-11T01:52:07.931Z,62.28
2018-02-11T01:54:40.980Z,62.06
2018-02-11T01:57:13.920Z,61.91
2018-02-11T01:59:46.838Z,63.37
2018-02-11T02:02:19.810Z,64.46
2018-02-11T02:04:53.477Z,64.34
2018-02-11T02:07:27.345Z,63.23
2018-02-11T02:10:00.241Z,62.82
2018-02-11T02:12:33.177Z,63.14
2018-02-11T02:15:06.243Z,62.54
2018-02-11T02:17:39.231Z,62.87
2018-02-11T02:20:12.145Z,63.24
2018-02-11T02:22:45.185Z,63.20
2018-02-11T02:25:18.009Z,62.16
2018-02-11T02:27:51.096Z,61.87
2018-02-11T02:30:24.515Z,62.69
2018-02-11T02:32:57.606Z,61.96
2018-02-11T02:35:31.987Z,62.79
2018-02-11T02:38:04.980Z,61.58
2018-02-11T02:40:37.725Z,61.53
2018-02-11T02:43:10.685Z,61.29
2018-02-11T02:45:43.467Z,61.81
2018-02-11T02:48:16.419Z,62.77
2018-02-11T02:50:50.482Z,62.07
2018-02-11T02:53:23.346Z,62.72
2018-02-11T02:55:56.348Z,62.49
2018-02-11T02:58:29.318Z,62.78
2018-02-11T03:01:02.314Z,61.47
2018-02-11T03:03:35.177Z,62.36
2018-02-11T03:06:08.626Z,62.17
2018-02-11T03:08:41.598Z,61.42
2018-02-11T03:11:15.161Z,61.47
2018-02-11T03:13:48.091Z,62.02
2018-02-11T03:16:22.330Z,62.92
2018-02-11T03:18:55.295Z,62.12
2018-02-11T03:21:28.308Z,61.86
2018-02-11T03:24:00.807Z,61.78
2018-02-11T03:26:33.319Z,61.04
2018-02-11T03:29:05.825Z,63.22
2018-02-11T03:31:38.726Z,62.50
2018-02-11T03:34:12.023Z,62.78
2018-02-11T03:36:44.998Z,61.87
2018-02-11T03:39:17.508Z,62.06
2018-02-11T03:41:50.074Z,61.27
2018-02-11T03:44:22.581Z,60.82
2018-02-11T03:46:55.086Z,60.49
2018-02-11T03:49:27.591Z,59.99
2018-02-11T03:52:00.151Z,60.67
2018-02-11T03:54:32.714Z,60.42
2018-02-11T03:57:05.227Z,60.98
2018-02-11T03:59:37.755Z,61.06
2018-02-11T04:02:10.267Z,60.79
2018-02-11T04:04:42.756Z,60.45
2018-02-11T04:07:15.302Z,60.20
2018-02-11T04:09:47.785Z,60.29
2018-02-11T04:12:20.298Z,60.97
2018-02-11T04:14:52.804Z,60.57
2018-02-11T04:17:25.315Z,60.83
2018-02-11T04:19:57.816Z,60.31
2018-02-11T04:22:30.332Z,59.93
2018-02-11T04:25:02.838Z,59.88
2018-02-11T04:27:35.357Z,60.39
2018-02-11T04:30:07.856Z,59.34
2018-02-11T04:32:40.432Z,60.21
2018-02-11T04:35:12.931Z,59.13
2018-02-11T04:37:45.454Z,58.78
2018-02-11T04:40:17.947Z,59.50
2018-02-11T04:42:50.466Z,59.60
2018-02-11T04:45:22.960Z,59.73
2018-02-11T04:47:55.468Z,59.65
2018-02-11T04:50:27.963Z,58.27
2018-02-11T04:53:00.479Z,58.78
2018-02-11T04:55:32.973Z,58.93
2018-02-11T04:58:05.496Z,58.37
2018-02-11T05:00:37.984Z,57.93
2018-02-11T05:03:10.500Z,58.52
2018-02-11T05:05:42.990Z,59.06
2018-02-11T05:08:15.499Z,59.24
2018-02-11T05:10:47.986Z,58.25
2018-02-11T05:13:20.514Z,59.22
2018-02-11T05:15:53.009Z,58.46
2018-02-11T05:18:27.270Z,58.90
2018-02-11T05:20:59.768Z,59.27
2018-02-11T05:23:34.655Z,58.83
2018-02-11T05:26:07.860Z,58.61
2018-02-11T05:28:40.388Z,58.50
2018-02-11T05:31:12.958Z,57.85
2018-02-11T05:33:45.522Z,57.35
2018-02-11T05:36:18.011Z,57.54
2018-02-11T05:38:50.530Z,57.37
2018-02-11T05:41:23.074Z,57.70
2018-02-11T05:43:55.608Z,57.11
2018-02-11T05:46:28.111Z,56.87
2018-02-11T05:49:00.651Z,56.95
2018-02-11T05:51:33.153Z,57.01
2018-02-11T05:54:05.701Z,56.48
2018-02-11T05:56:38.190Z,57.15
2018-02-11T05:59:10.709Z,56.58
2018-02-11T06:01:43.294Z,57.57
2018-02-11T06:04:15.834Z,57.23
2018-02-11T06:06:48.327Z,57.06
2018-02-11T06:09:20.872Z,57.11
2018-02-11T06:11:53.416Z,58.38
2018-02-11T06:14:25.934Z,58.04
2018-02-11T06:16:58.465Z,57.68
2018-02-11T06:19:30.985Z,58.03
2018-02-11T06:22:03.507Z,57.34
2018-02-11T06:24:36.076Z,58.55
2018-02-11T06:27:08.627Z,57.58
2018-02-11T06:29:41.115Z,58.12
2018-02-11T06:32:13.653Z,58.16
2018-02-11T06:34:46.181Z,57.49
2018-02-11T06:37:18.701Z,58.57
2018-02-11T06:39:51.204Z,59.70
2018-02-11T06:42:23.738Z,59.55
2018-02-11T06:44:56.243Z,60.41
2018-02-11T06:47:28.761Z,60.14
2018-02-11T06:50:01.248Z,61.15
2018-02-11T06:52:33.763Z,61.24
2018-02-11T06:55:06.266Z,61.09
2018-02-11T06:57:38.791Z,61.13
2018-02-11T07:00:11.314Z,61.52
2018-02-11T07:02:43.800Z,60.72
2018-02-11T07:05:16.292Z,60.13
2018-02-11T07:07:48.833Z,60.46
2018-02-11T07:10:21.681Z,60.37
2018-02-11T07:12:54.191Z,61.66
2018-02-11T07:15:26.707Z,62.14
2018-02-11T07:17:59.237Z,64.09
2018-02-11T07:20:31.743Z,64.24
2018-02-11T07:23:04.256Z,64.46
2018-02-11T07:25:36.808Z,65.45
2018-02-11T07:28:09.329Z,65.73
2018-02-11T07:30:41.822Z,65.39
2018-02-11T07:33:14.348Z,65.86
2018-02-11T07:35:46.856Z,65.09
2018-02-11T07:38:19.355Z,66.39
2018-02-11T07:40:51.856Z,66.60
2018-02-11T07:43:24.450Z,67.39
2018-02-11T07:45:56.947Z,66.35
2018-02-11T07:48:29.476Z,66.24
2018-02-11T07:51:02.001Z,65.52
2018-02-11T07:53:34.530Z,66.31
2018-02-11T07:56:07.024Z,65.23
2018-02-11T07:58:39.537Z,65.39
2018-02-11T08:01:12.031Z,64.60
2018-02-11T08:03:44.598Z,64.98
2018-02-11T08:06:17.066Z,65.27
2018-02-11T08:08:49.570Z,66.30
2018-02-11T08:11:24.018Z,65.54
2018-02-11T08:13:56.619Z,65.17
2018-02-11T08:16:29.116Z,65.95
2018-02-11T08:19:01.817Z,65.03
2018-02-11T08:21:34.350Z,65.43
2018-02-11T08:24:06.864Z,67.29
2018-02-11T08:26:39.372Z,66.39
2018-02-11T08:29:11.930Z,67.28
2018-02-11T08:31:44.427Z,66.88
2018-02-11T08:34:16.957Z,67.50
2018-02-11T08:36:49.442Z,66.52
2018-02-11T08:39:21.966Z,66.81
2018-02-11T08:41:54.473Z,66.53
2018-02-11T08:44:27.022Z,65.15
2018-02-11T08:46:59.534Z,65.40
2018-02-11T08:49:32.080Z,65.90
2018-02-11T08:52:04.594Z,65.44
2018-02-11T08:54:37.135Z,65.96
2018-02-11T08:57:09.629Z,65.03
2018-02-11T08:59:42.146Z,65.70
2018-02-11T09:02:15.522Z,66.42
2018-02-11T09:04:48.048Z,66.26
2018-02-11T09:07:20.730Z,65.66
2018-02-11T09:09:53.268Z,65.62
2018-02-11T09:12:25.775Z,65.79
2018-02-11T09:14:59.392Z,67.66
2018-02-11T09:17:31.898Z,67.64
2018-02-11T09:20:04.442Z,67.82
2018-02-11T09:22:37.414Z,65.68
2018-02-11T09:25:09.978Z,64.85
2018-02-11T09:27:42.649Z,64.83
2018-02-11T09:30:15.183Z,65.88
2018-02-11T09:32:47.717Z,67.41
2018-02-11T09:35:20.237Z,66.95
2018-02-11T09:37:52.925Z,65.26
2018-02-11T09:40:25.438Z,65.19
2018-02-11T09:42:57.974Z,65.51
2018-02-11T09:45:30.473Z,65.71
2018-02-11T09:48:02.978Z,65.35
2018-02-11T09:50:35.475Z,65.57
2018-02-11T09:53:07.993Z,64.94
2018-02-11T09:55:40.496Z,65.94
2018-02-11T09:58:13.014Z,64.75
2018-02-11T10:00:45.504Z,64.43
2018-02-11T10:03:18.529Z,64.83
2018-02-11T10:05:51.034Z,64.89
2018-02-11T10:08:23.534Z,66.25
2018-02-11T10:10:56.036Z,65.76
2018-02-11T10:13:28.547Z,65.14
2018-02-11T10:16:01.345Z,64.12
2018-02-11T10:18:33.855Z,65.99
2018-02-11T10:21:06.352Z,65.41
2018-02-11T10:23:38.863Z,65.26
2018-02-11T10:26:11.376Z,65.00
2018-02-11T10:28:43.884Z,65.69
2018-02-11T10:31:16.368Z,66.62
2018-02-11T10:33:48.883Z,65.02
2018-02-11T10:36:21.407Z,65.05
2018-02-11T10:38:53.957Z,66.26
2018-02-11T10:41:26.460Z,66.13
2018-02-11T10:43:58.971Z,64.79
2018-02-11T10:46:31.464Z,65.29
2018-02-11T10:49:03.981Z,65.42
2018-02-11T10:51:36.927Z,64.73
2018-02-11T10:54:09.538Z,64.47
2018-02-11T10:56:42.057Z,65.39
2018-02-11T10:59:14.599Z,65.25
2018-02-11T11:01:47.202Z,65.76
2018-02-11T11:04:19.732Z,65.34
2018-02-11T11:06:52.225Z,64.85
2018-02-11T11:09:24.742Z,65.68
2018-02-11T11:11:57.243Z,65.21
2018-02-11T11:14:29.815Z,64.89
2018-02-11T11:17:02.311Z,65.15
2018-02-11T11:19:34.831Z,65.15
2018-02-11T11:22:07.318Z,65.03
2018-02-11T11:24:39.844Z,65.53
2018-02-11T11:27:12.372Z,65.39
2018-02-11T11:29:44.909Z,65.74
2018-02-11T11:32:17.418Z,65.39
2018-02-11T11:34:49.933Z,64.83
2018-02-11T11:37:22.472Z,64.72
2018-02-11T11:39:55.003Z,64.50
2018-02-11T11:42:27.547Z,64.47
2018-02-11T11:45:00.098Z,64.67
2018-02-11T11:47:32.597Z,64.65
2018-02-11T11:50:05.122Z,64.58
2018-02-11T11:52:37.625Z,63.62
2018-02-11T11:55:10.127Z,64.47
2018-02-11T11:57:42.614Z,64.28
2018-02-11T12:00:15.417Z,65.52
2018-02-11T12:02:47.916Z,65.56
2018-02-11T12:05:20.423Z,65.50
2018-02-11T12:07:52.984Z,65.08
2018-02-11T12:10:25.544Z,64.83
2018-02-11T12:12:58.036Z,66.29
2018-02-11T12:15:30.564Z,65.29
2018-02-11T12:18:03.064Z,65.80
2018-02-11T12:20:35.694Z,65.49
2018-02-11T12:23:08.241Z,66.15
2018-02-11T12:25:40.759Z,66.78
2018-02-11T12:28:14.216Z,67.63
2018-02-11T12:30:46.727Z,66.16
2018-02-11T12:33:19.284Z,65.75
2018-02-11T12:35:51.804Z,65.11
2018-02-11T12:38:24.290Z,65.84
2018-02-11T12:40:56.796Z,66.46
2018-02-11T12:43:29.287Z,66.45
2018-02-11T12:46:01.804Z,66.39
2018-02-11T12:48:34.323Z,66.11
2018-02-11T12:51:06.916Z,65.80
2018-02-11T12:53:40.243Z,65.34
2018-02-11T12:56:12.752Z,65.58
2018-02-11T12:58:45.238Z,66.65
2018-02-11T13:01:17.777Z,66.50
2018-02-11T13:03:50.276Z,66.04
2018-02-11T13:06:22.775Z,66.31
2018-02-11T13:08:55.264Z,65.20
2018-02-11T13:11:27.779Z,65.74
2018-02-11T13:14:00.268Z,66.15
2018-02-11T13:16:32.794Z,65.77
2018-02-11T13:19:05.281Z,65.84
2018-02-11T13:21:37.800Z,65.44
2018-02-11T13:24:10.303Z,66.02
2018-02-11T13:26:42.808Z,65.45
2018-02-11T13:29:15.367Z,65.51
2018-02-11T13:31:47.888Z,65.16
2018-02-11T13:34:20.407Z,65.53
2018-02-11T13:36:52.898Z,65.65
2018-02-11T13:39:25.407Z,65.53
2018-02-11T13:41:57.897Z,65.61
2018-02-11T13:44:30.403Z,65.51
2018-02-11T13:47:02.881Z,66.72
2018-02-11T13:49:35.395Z,65.69
2018-02-11T13:52:07.991Z,66.16
2018-02-11T13:54:40.491Z,65.88
2018-02-11T13:57:12.990Z,65.94
2018-02-11T13:59:45.490Z,65.44
2018-02-11T14:02:17.981Z,65.09
2018-02-11T14:04:50.493Z,64.83
2018-02-11T14:07:22.984Z,65.84
2018-02-11T14:09:55.508Z,66.02
2018-02-11T14:12:27.992Z,64.81
2018-02-11T14:15:00.506Z,64.90
2018-02-11T14:17:33.008Z,64.75
2018-02-11T14:20:05.597Z,65.75
2018-02-11T14:22:38.145Z,66.38
2018-02-11T14:25:10.663Z,64.95
2018-02-11T14:27:43.164Z,63.74
2018-02-11T14:30:15.683Z,64.00
2018-02-11T14:32:48.174Z,63.98
2018-02-11T14:35:20.687Z,65.52
2018-02-11T14:37:53.181Z,64.29
2018-02-11T14:40:25.685Z,65.13
2018-02-11T14:42:58.244Z,65.89
2018-02-11T14:45:30.778Z,65.02
2018-02-11T14:48:03.565Z,65.14
2018-02-11T14:50:36.125Z,64.63
2018-02-11T14:53:08.606Z,64.57
2018-02-11T14:55:41.145Z,64.76
2018-02-11T14:58:13.632Z,64.51
2018-02-11T15:00:46.156Z,64.64
2018-02-11T15:03:18.648Z,64.76
2018-02-11T15:05:51.172Z,65.55
2018-02-11T15:08:23.660Z,64.71
2018-02-11T15:10:56.168Z,64.08
2018-02-11T15:13:28.651Z,64.90
2018-02-11T15:16:01.164Z,65.02
2018-02-11T15:18:33.647Z,65.33
2018-02-11T15:21:06.186Z,64.66
2018-02-11T15:23:38.676Z,64.65
2018-02-11T15:26:11.200Z,64.26
2018-02-11T15:28:43.685Z,64.44
2018-02-11T15:31:16.185Z,63.92
2018-02-11T15:33:48.680Z,64.01
2018-02-11T15:36:21.191Z,64.47
2018-02-11T15:38:53.700Z,64.63
2018-02-11T15:41:26.215Z,64.19
2018-02-11T15:43:58.717Z,64.99
2018-02-11T15:46:31.227Z,65.44
2018-02-11T15:49:03.703Z,65.33
2018-02-11T15:51:36.257Z,64.51
2018-02-11T15:54:08.758Z,64.34
2018-02-11T15:56:41.317Z,63.96
2018-02-11T15:59:13.817Z,63.18
2018-02-11T16:01:46.327Z,64.29
2018-02-11T16:04:18.815Z,65.69
2018-02-11T16:06:51.323Z,65.95
2018-02-11T16:09:23.804Z,64.61
2018-02-11T16:11:56.308Z,65.42
2018-02-11T16:14:28.811Z,66.75
2018-02-11T16:17:01.329Z,66.83
2018-02-11T16:19:33.830Z,65.54
2018-02-11T16:22:06.397Z,65.33
2018-02-11T16:24:38.885Z,64.51
2018-02-11T16:27:11.413Z,64.07
2018-02-11T16:29:43.910Z,64.30
2018-02-11T16:32:16.415Z,63.69
2018-02-11T16:34:48.923Z,64.16
2018-02-11T16:37:21.433Z,64.83
2018-02-11T16:39:53.947Z,65.06
2018-02-11T16:42:26.468Z,64.49
2018-02-11T16:44:58.966Z,65.13
2018-02-11T16:47:31.469Z,65.39
2018-02-11T16:50:03.968Z,65.39
2018-02-11T16:52:36.476Z,64.59
2018-02-11T16:55:08.971Z,64.61
2018-02-11T16:57:41.483Z,64.65
2018-02-11T17:00:13.968Z,64.93
2018-02-11T17:02:46.485Z,64.90
2018-02-11T17:05:19.126Z,64.75
2018-02-11T17:07:51.639Z,64.42
2018-02-11T17:10:24.171Z,64.58
2018-02-11T17:12:56.672Z,64.37
2018-02-11T17:15:29.206Z,64.32
2018-02-11T17:18:01.710Z,64.66
2018-02-11T17:20:34.225Z,64.56
2018-02-11T17:23:06.716Z,64.55
2018-02-11T17:25:39.238Z,64.68
2018-02-11T17:28:11.901Z,64.44
2018-02-11T17:30:44.814Z,64.17
2018-02-11T17:33:17.440Z,64.40
2018-02-11T17:35:50.848Z,64.33
2018-02-11T17:38:23.330Z,64.29
2018-02-11T17:40:55.844Z,63.84
2018-02-11T17:43:28.354Z,64.08
2018-02-11T17:46:00.875Z,64.85
2018-02-11T17:48:33.368Z,65.00
2018-02-11T17:51:05.933Z,65.29
2018-02-11T17:53:38.421Z,65.73
2018-02-11T17:56:10.937Z,65.58
2018-02-11T18:01:22.428Z,65.13
2018-02-11T18:03:54.935Z,64.76
2018-02-11T18:06:27.456Z,65.61
2018-02-11T18:08:59.949Z,65.67
2018-02-11T18:11:32.460Z,66.80
2018-02-11T18:14:04.968Z,65.61
2018-02-11T18:16:37.482Z,65.28
2018-02-11T18:19:09.972Z,63.82
2018-02-11T18:21:42.496Z,64.90
2018-02-11T18:24:15.014Z,64.86
2018-02-11T18:26:47.521Z,64.34
2018-02-11T18:29:20.013Z,64.77
2018-02-11T18:31:54.150Z,64.53
2018-02-11T18:34:26.655Z,64.56
2018-02-11T18:36:59.159Z,64.54
2018-02-11T18:39:31.648Z,64.41
2018-02-11T18:42:04.165Z,63.96
2018-02-11T18:44:36.667Z,64.03
2018-02-11T18:47:09.212Z,64.03
2018-02-11T18:49:41.761Z,64.16
2018-02-11T18:52:14.281Z,63.95
2018-02-11T18:54:46.778Z,63.98
2018-02-11T18:57:19.286Z,63.80
2018-02-11T18:59:51.779Z,64.44
2018-02-11T19:02:24.292Z,64.37
2018-02-11T19:04:56.791Z,64.39
2018-02-11T19:07:29.335Z,64.45
2018-02-11T19:10:01.841Z,64.13
2018-02-11T19:12:34.365Z,64.38
2018-02-11T19:15:06.850Z,64.36
2018-02-11T19:17:39.365Z,64.54
2018-02-11T19:20:12.120Z,64.46
2018-02-11T19:22:46.019Z,64.44
2018-02-11T19:25:18.518Z,64.55
2018-02-11T19:27:51.034Z,64.52
2018-02-11T19:30:23.519Z,64.24
2018-02-11T19:32:56.369Z,64.50
2018-02-11T19:35:29.258Z,64.54
2018-02-11T19:38:02.485Z,64.47
2018-02-11T19:40:35.612Z,64.59
2018-02-11T19:43:08.141Z,64.42
2018-02-11T19:45:40.626Z,64.33
2018-02-11T19:48:13.178Z,64.29
2018-02-11T19:50:45.696Z,64.39
2018-02-11T19:53:18.567Z,64.37
2018-02-11T19:55:51.358Z,64.42
2018-02-11T19:58:24.224Z,64.10
2018-02-11T20:00:56.729Z,64.04
2018-02-11T20:03:30.198Z,63.71
2018-02-11T20:06:02.709Z,64.03
2018-02-11T20:08:35.219Z,64.15
2018-02-11T20:11:07.714Z,63.78
2018-02-11T20:13:40.325Z,64.51
2018-02-11T20:16:12.833Z,64.24
2018-02-11T20:18:45.353Z,63.73
2018-02-11T20:21:17.862Z,64.42
2018-02-11T20:23:50.380Z,64.57
2018-02-11T20:26:22.867Z,64.69
2018-02-11T20:28:55.387Z,64.47
2018-02-11T20:31:27.900Z,64.21
2018-02-11T20:34:00.415Z,64.32
2018-02-11T20:36:32.904Z,64.47
2018-02-11T20:39:05.424Z,64.64
2018-02-11T20:41:37.915Z,64.13
2018-02-11T20:44:10.429Z,63.95
2018-02-11T20:46:43.779Z,64.14
2018-02-11T20:49:16.290Z,64.11
2018-02-11T20:51:48.792Z,63.86
2018-02-11T20:54:21.301Z,64.17
2018-02-11T20:56:53.822Z,64.25
2018-02-11T20:59:26.342Z,63.99
2018-02-11T21:01:58.846Z,64.78
2018-02-11T21:04:32.091Z,64.71
2018-02-11T21:07:04.579Z,64.53
2018-02-11T21:09:37.110Z,64.37
2018-02-11T21:12:09.602Z,64.63
2018-02-11T21:14:42.138Z,64.80
2018-02-11T21:17:14.641Z,64.30
2018-02-11T21:19:47.171Z,64.81
2018-02-11T21:22:19.676Z,64.77
2018-02-11T21:24:53.231Z,64.26
2018-02-11T21:27:25.740Z,64.84
2018-02-11T21:29:58.278Z,64.53
2018-02-11T21:32:30.782Z,64.35
2018-02-11T21:35:03.310Z,64.43
2018-02-11T21:37:35.802Z,63.47
2018-02-11T21:40:08.313Z,64.97
2018-02-11T21:42:40.833Z,64.79
2018-02-11T21:45:13.356Z,63.49
2018-02-11T21:47:46.349Z,64.36
2018-02-11T21:50:18.888Z,64.36
2018-02-11T21:55:30.290Z,64.57
2018-02-11T21:58:02.795Z,64.08
2018-02-11T22:00:35.329Z,64.31
2018-02-11T22:03:07.832Z,64.33
2018-02-11T22:05:40.359Z,64.42
2018-02-11T22:08:12.852Z,64.29
2018-02-11T22:10:45.413Z,64.62
2018-02-11T22:13:17.919Z,64.09
2018-02-11T22:15:50.482Z,64.75
2018-02-11T22:18:22.974Z,64.64
2018-02-11T22:21:01.614Z,64.44
2018-02-11T22:23:36.182Z,64.74
2018-02-11T22:26:08.701Z,64.59
2018-02-11T22:28:41.193Z,64.73
2018-02-11T22:31:13.787Z,64.39
2018-02-11T22:33:46.345Z,64.31
2018-02-11T22:36:18.867Z,64.43
2018-02-11T22:38:52.269Z,64.29
2018-02-11T22:41:24.797Z,64.16
2018-02-11T22:43:57.284Z,64.09
2018-02-11T22:46:29.794Z,64.40
2018-02-11T22:49:02.291Z,64.61
2018-02-11T22:51:34.796Z,64.41
2018-02-11T22:54:07.283Z,64.38
2018-02-11T22:56:39.809Z,64.28
2018-02-11T22:59:12.302Z,64.51
2018-02-11T23:01:44.815Z,64.12
2018-02-11T23:04:17.302Z,63.96
2018-02-11T23:06:49.825Z,64.08
2018-02-11T23:09:22.316Z,64.59
2018-02-11T23:11:54.843Z,64.48
2018-02-11T23:14:27.324Z,64.19
2018-02-11T23:16:59.841Z,64.02
2018-02-11T23:19:44.106Z,64.23
2018-02-11T23:22:16.625Z,64.22
2018-02-11T23:24:49.119Z,64.21
2018-02-11T23:27:21.636Z,64.37
2018-02-11T23:29:54.132Z,64.12
2018-02-11T23:32:26.652Z,64.04
2018-02-11T23:34:59.148Z,64.38
2018-02-11T23:37:31.685Z,64.78
2018-02-11T23:40:04.172Z,64.88
2018-02-11T23:42:36.683Z,64.28
2018-02-11T23:45:09.187Z,64.86
2018-02-11T23:47:41.757Z,64.69
2018-02-11T23:50:14.257Z,64.40
2018-02-11T23:52:46.782Z,65.06
2018-02-11T23:55:19.278Z,64.51
2018-02-11T23:57:51.797Z,64.10
